Time;durP1;ratioP1;P1;durP2;ratioP2;P2;SDS_P1;SDS_P2;PMS_P1;PMS_P2;Temp;Humidity;BMP_temperature;BMP_pressure;BME280_temperature;BME280_humidity;BME280_pressure;Samples;Min_cycle;Max_cycle;Signal;HPM_P1;HPM_P2
2022/06/21 00:01:49;;;;;;;10.70;6.40;;;;;;;12.71;79.49;100923.25;6218692;23;20047;-79
2022/06/21 00:04:16;;;;;;;8.05;6.18;;;;;;;12.70;78.67;100921.63;6219812;23;20085;-79
2022/06/21 00:06:43;;;;;;;10.18;6.00;;;;;;;12.77;79.13;100914.69;6218024;23;20021;-79
2022/06/21 00:09:12;;;;;;;10.63;6.60;;;;;;;12.75;79.00;100918.50;6217583;23;20071;-79
2022/06/21 00:11:41;;;;;;;9.65;6.15;;;;;;;12.78;78.84;100918.97;6217673;23;20025;-79
2022/06/21 00:14:07;;;;;;;9.90;5.72;;;;;;;12.76;78.24;100910.44;6217850;23;20025;-78
2022/06/21 00:16:35;;;;;;;10.40;6.03;;;;;;;12.71;78.74;100912.75;6216400;23;20052;-79
2022/06/21 00:19:02;;;;;;;11.70;5.90;;;;;;;12.71;78.79;100907.50;6216233;23;20028;-79
2022/06/21 00:21:33;;;;;;;10.45;6.18;;;;;;;12.68;79.46;100907.81;6215810;23;20318;-79
2022/06/21 00:24:00;;;;;;;11.18;6.57;;;;;;;12.66;79.53;100906.34;6216255;23;20357;-79
2022/06/21 00:26:28;;;;;;;10.35;6.57;;;;;;;12.59;79.37;100904.38;6214637;23;20349;-78
2022/06/21 00:28:57;;;;;;;10.57;7.45;;;;;;;12.60;79.48;100918.31;6214354;23;20063;-78
2022/06/21 00:31:28;;;;;;;7.65;6.05;;;;;;;12.57;79.58;100913.38;6214106;23;20055;-78
2022/06/21 00:33:55;;;;;;;8.30;6.63;;;;;;;12.52;79.82;100903.38;6213859;23;20055;-79
2022/06/21 00:36:25;;;;;;;8.57;6.60;;;;;;;12.52;80.15;100898.13;6213315;23;20294;-77
2022/06/21 00:38:54;;;;;;;12.10;7.22;;;;;;;12.50;79.94;100899.25;6213547;23;20090;-78
2022/06/21 00:41:26;;;;;;;12.50;6.70;;;;;;;12.50;80.23;100894.00;6213645;23;20321;-78
2022/06/21 00:43:54;;;;;;;7.35;6.38;;;;;;;12.45;80.29;100891.88;6213828;23;20025;-77
2022/06/21 00:46:31;;;;;;;11.00;7.15;;;;;;;12.46;80.32;100897.94;6213406;23;20096;-78
2022/06/21 00:49:00;;;;;;;9.13;6.85;;;;;;;12.47;80.37;100899.59;6213243;23;20477;-78
2022/06/21 00:51:32;;;;;;;9.60;6.30;;;;;;;12.45;81.00;100904.19;6213588;23;20052;-78
2022/06/21 00:54:03;;;;;;;8.48;6.45;;;;;;;12.36;80.44;100894.63;6214798;23;20073;-79
2022/06/21 00:56:34;;;;;;;11.25;6.60;;;;;;;12.37;81.06;100897.09;6214716;23;20107;-78
2022/06/21 00:59:16;;;;;;;11.77;7.47;;;;;;;12.28;81.05;100898.09;6214171;23;20052;-77
2022/06/21 01:01:45;;;;;;;9.35;7.07;;;;;;;12.29;81.38;100897.91;6213581;23;20025;-77
2022/06/21 01:04:17;;;;;;;8.73;6.63;;;;;;;12.21;83.03;100895.28;6213747;23;20048;-77
2022/06/21 01:06:48;;;;;;;11.60;6.18;;;;;;;12.07;83.40;100903.75;6213608;23;20020;-77
2022/06/21 01:09:23;;;;;;;8.27;6.65;;;;;;;11.93;83.68;100899.94;6213569;23;20329;-78
2022/06/21 01:11:54;;;;;;;10.30;7.07;;;;;;;11.85;83.68;100896.44;6213724;23;20689;-78
2022/06/21 01:14:23;;;;;;;9.45;6.85;;;;;;;11.76;83.65;100895.59;6213339;23;20083;-78
2022/06/21 01:16:51;;;;;;;10.43;7.35;;;;;;;11.74;84.35;100892.31;6213445;23;20016;-77
2022/06/21 01:19:27;;;;;;;9.30;7.22;;;;;;;11.72;84.66;100888.19;6213488;23;20051;-77
2022/06/21 01:22:01;;;;;;;8.82;7.13;;;;;;;11.69;84.70;100873.59;6212775;23;20540;-78
2022/06/21 01:24:38;;;;;;;10.40;7.40;;;;;;;11.64;85.03;100881.09;6213543;23;20024;-78
2022/06/21 01:27:06;;;;;;;12.93;8.32;;;;;;;11.66;85.12;100875.72;6213229;23;20044;-78
2022/06/21 01:29:35;;;;;;;12.60;7.82;;;;;;;11.63;84.98;100880.28;6212652;23;20238;-77
2022/06/21 01:32:05;;;;;;;9.88;7.80;;;;;;;11.62;85.15;100878.66;6213101;23;20072;-78
2022/06/21 01:34:32;;;;;;;14.45;7.95;;;;;;;11.61;84.93;100879.63;6213164;23;20082;-78
2022/06/21 01:37:06;;;;;;;11.30;8.10;;;;;;;11.59;85.62;100889.44;6212490;23;20048;-77
2022/06/21 01:39:39;;;;;;;15.57;8.50;;;;;;;11.55;86.65;100888.09;6212382;23;20457;-77
2022/06/21 01:42:10;;;;;;;;;;;;;;;11.44;86.58;100888.38;6213306;23;20105;-77
2022/06/21 01:44:42;;;;;;;15.90;8.63;;;;;;;11.39;85.77;100885.38;6213063;23;19951;-77
2022/06/21 01:47:13;;;;;;;11.77;8.10;;;;;;;11.40;85.94;100875.72;6214979;23;20074;-78
2022/06/21 01:49:44;;;;;;;11.05;8.98;;;;;;;11.34;86.08;100879.81;6214791;23;20031;-78
2022/06/21 01:52:15;;;;;;;12.35;8.60;;;;;;;11.33;86.61;100877.34;6214933;23;20024;-79
2022/06/21 01:54:51;;;;;;;15.80;8.43;;;;;;;11.30;85.97;100875.84;6213917;23;20461;-78
2022/06/21 01:57:19;;;;;;;15.10;8.80;;;;;;;11.34;86.48;100869.34;6214124;23;20150;-77
2022/06/21 01:59:50;;;;;;;13.63;8.80;;;;;;;11.26;86.49;100877.13;6214253;23;20020;-77
2022/06/21 02:02:21;;;;;;;14.18;8.95;;;;;;;11.21;86.54;100861.06;6214785;23;20024;-77
2022/06/21 02:04:54;;;;;;;11.40;8.73;;;;;;;11.27;87.17;100863.06;6215074;23;20079;-77
2022/06/21 02:07:25;;;;;;;14.32;9.02;;;;;;;11.22;87.09;100873.19;6215113;23;20083;-77
2022/06/21 02:09:58;;;;;;;14.20;9.15;;;;;;;11.23;87.69;100878.28;6214281;23;20082;-77
2022/06/21 02:12:27;;;;;;;;;;;;;;;11.20;88.17;100885.63;6215439;23;20079;-77
2022/06/21 02:14:57;;;;;;;11.00;8.65;;;;;;;11.13;87.04;100872.31;6214325;23;19951;-77
2022/06/21 02:17:26;;;;;;;16.33;8.93;;;;;;;11.07;87.70;100882.56;6215975;23;20103;-78
2022/06/21 02:20:01;;;;;;;15.25;9.20;;;;;;;11.05;88.46;100864.38;6217809;23;20099;-78
2022/06/21 02:22:30;;;;;;;10.95;8.88;;;;;;;10.96;88.21;100876.59;6217583;23;20342;-79
2022/06/21 02:24:57;;;;;;;12.73;9.07;;;;;;;10.96;87.57;100863.50;6217578;23;20024;-77
2022/06/21 02:27:30;;;;;;;10.70;8.48;;;;;;;10.88;88.27;100873.91;6215078;23;20021;-77
2022/06/21 02:29:58;;;;;;;;;;;;;;;10.82;88.45;100874.53;6216127;23;20025;-77
2022/06/21 02:32:28;;;;;;;11.35;8.38;;;;;;;10.84;88.93;100872.59;6218533;23;19923;-77
2022/06/21 02:35:01;;;;;;;12.63;8.98;;;;;;;10.77;89.06;100876.78;6215610;23;20055;-77
2022/06/21 02:37:29;;;;;;;12.93;9.77;;;;;;;10.78;89.44;100862.72;6216597;23;20087;-77
2022/06/21 02:39:57;;;;;;;13.98;9.60;;;;;;;10.73;89.73;100864.97;6214586;23;20025;-77
2022/06/21 02:42:28;;;;;;;15.75;10.32;;;;;;;10.69;89.98;100868.03;6214175;23;20091;-77
2022/06/21 02:45:02;;;;;;;11.98;9.40;;;;;;;10.66;90.31;100861.31;6215348;23;20024;-78
2022/06/21 02:47:33;;;;;;;14.18;10.45;;;;;;;10.66;90.80;100853.47;6214745;23;20096;-78
2022/06/21 02:50:04;;;;;;;14.73;10.20;;;;;;;10.63;90.55;100832.84;6213790;23;20059;-78
2022/06/21 02:52:36;;;;;;;13.75;10.52;;;;;;;10.68;91.06;100845.47;6214691;23;20080;-78
2022/06/21 02:55:24;;;;;;;16.15;9.75;;;;;;;10.70;90.79;100843.53;6217930;23;20020;-78
2022/06/21 02:57:57;;;;;;;15.23;9.55;;;;;;;10.67;90.48;100844.66;6215199;23;20344;-78
2022/06/21 03:00:25;;;;;;;13.07;9.82;;;;;;;10.74;90.55;100848.31;6214164;23;20063;-78
2022/06/21 03:02:53;;;;;;;15.02;9.90;;;;;;;10.74;90.17;100847.47;6214332;23;20086;-78
2022/06/21 03:05:22;;;;;;;16.73;10.00;;;;;;;10.68;90.65;100840.22;6214476;23;20051;-77
2022/06/21 03:07:53;;;;;;;13.75;10.10;;;;;;;10.64;91.11;100837.91;6214512;23;20021;-77
2022/06/21 03:10:24;;;;;;;12.98;10.27;;;;;;;10.59;91.06;100826.25;6214025;23;20492;-78
2022/06/21 03:13:02;;;;;;;12.63;10.15;;;;;;;10.56;91.56;100826.56;6214805;23;20016;-78
2022/06/21 03:15:31;;;;;;;16.45;10.23;;;;;;;10.55;92.03;100836.19;6214899;23;20048;-79
2022/06/21 03:18:02;;;;;;;15.98;10.75;;;;;;;10.59;91.24;100844.56;6214306;23;20338;-78
2022/06/21 03:20:33;;;;;;;13.27;10.00;;;;;;;10.59;91.25;100828.88;6213712;23;20063;-76
2022/06/21 03:23:01;;;;;;;15.75;10.35;;;;;;;10.61;91.13;100822.50;6213664;23;20094;-81
2022/06/21 03:25:30;;;;;;;14.60;10.32;;;;;;;10.61;91.13;100825.13;6218856;23;20024;-81
2022/06/21 03:27:59;;;;;;;14.52;10.13;;;;;;;10.61;91.15;100824.31;6219516;23;20027;-82
2022/06/21 03:30:31;;;;;;;10.52;9.15;;;;;;;10.64;91.55;100826.63;6219305;23;20040;-81
2022/06/21 03:32:59;;;;;;;12.85;9.88;;;;;;;10.62;91.38;100839.03;6217831;23;20052;-81
2022/06/21 03:35:28;;;;;;;11.88;9.40;;;;;;;10.64;91.75;100837.91;6217916;23;20517;-81
2022/06/21 03:37:54;;;;;;;13.73;9.43;;;;;;;10.71;91.60;100845.97;6216597;23;20017;-81
2022/06/21 03:53:38;;;;;;;12.00;9.80;;;;;;;10.34;90.88;100859.25;6221516;23;20016;-81
2022/06/21 03:56:26;;;;;;;12.60;9.55;;;;;;;10.52;91.38;100877.53;6225601;23;20072;-82
2022/06/21 03:59:13;;;;;;;14.10;10.38;;;;;;;10.49;91.58;100860.34;6226848;23;20017;-78
2022/06/21 04:01:54;;;;;;;14.68;9.98;;;;;;;10.62;91.25;100866.03;6227375;23;20082;-81
2022/06/21 04:11:41;;;;;;;12.95;8.00;;;;;;;14.04;76.74;100872.72;5974213;23;20098;-83
2022/06/21 04:14:13;;;;;;;;;;;;;;;15.15;71.38;100885.41;6163315;23;20028;-82
2022/06/21 04:17:01;;;;;;;11.98;6.82;;;;;;;15.91;69.04;100887.72;6226754;23;19942;-80
2022/06/21 04:22:53;;;;;;;11.35;7.10;;;;;;;17.08;62.92;100888.28;6211718;23;20025;-81
2022/06/21 04:25:38;;;;;;;14.93;7.27;;;;;;;17.25;61.95;100862.38;6228182;23;20477;-80
2022/06/21 04:34:38;;;;;;;9.55;6.60;;;;;;;17.69;60.00;100866.50;6228507;23;20041;-80
2022/06/21 04:37:10;;;;;;;10.52;7.38;;;;;;;16.79;62.17;100849.63;6230981;23;20028;-84
2022/06/21 04:45:34;;;;;;;14.00;8.55;;;;;;;15.56;69.05;100839.19;6233956;23;20068;-86
2022/06/21 04:48:23;;;;;;;13.63;8.93;;;;;;;17.05;63.48;100819.91;6241861;23;20008;-83
2022/06/21 04:50:57;;;;;;;12.52;8.77;;;;;;;16.50;64.93;100834.75;6242561;23;20025;-80
2022/06/21 04:53:38;;;;;;;10.20;7.07;;;;;;;16.54;64.41;100820.13;6242401;23;20021;-83
2022/06/21 04:56:16;;;;;;;11.10;7.50;;;;;;;16.42;65.99;100819.00;6238767;23;20021;-80
2022/06/21 04:58:44;;;;;;;11.77;7.35;;;;;;;16.92;62.81;100839.16;6220537;23;20021;-80
2022/06/21 05:03:52;;;;;;;11.15;7.10;;;;;;;17.46;62.53;100830.56;6220491;23;20051;-79
2022/06/21 05:06:21;;;;;;;12.20;7.57;;;;;;;16.99;62.89;100828.66;6220900;23;20021;-80
2022/06/21 05:08:49;;;;;;;11.30;7.97;;;;;;;16.85;64.34;100843.59;6221337;23;20095;-81
2022/06/21 05:11:16;;;;;;;10.68;7.30;;;;;;;16.03;67.18;100845.03;6220850;23;20035;-81
2022/06/21 05:13:48;;;;;;;10.13;7.57;;;;;;;16.01;68.07;100829.38;6221564;23;20335;-84
2022/06/21 05:16:21;;;;;;;12.70;7.50;;;;;;;16.63;65.67;100812.88;6221487;23;20098;-84
2022/06/21 05:18:53;;;;;;;10.90;7.20;;;;;;;18.21;59.91;100836.72;6221774;23;20600;-82
2022/06/21 05:21:31;;;;;;;9.50;6.38;;;;;;;19.12;56.57;100829.00;6221682;23;20060;-81
2022/06/21 05:23:59;;;;;;;8.18;6.32;;;;;;;19.27;56.32;100840.22;6219969;23;20048;-81
2022/06/21 05:26:34;;;;;;;14.25;6.88;;;;;;;19.19;55.51;100848.38;6223020;23;20083;-80
2022/06/21 05:29:07;;;;;;;10.88;6.85;;;;;;;20.04;53.18;100836.66;6226745;23;20017;-80
2022/06/21 05:31:41;;;;;;;11.30;6.38;;;;;;;20.63;51.83;100827.50;6228997;23;20020;-81
2022/06/21 05:34:18;;;;;;;10.30;5.95;;;;;;;21.78;49.88;100844.50;6226202;23;20028;-81
2022/06/21 05:36:58;;;;;;;14.60;6.75;;;;;;;21.06;50.31;100824.84;6225270;23;20032;-81
2022/06/21 05:39:30;;;;;;;9.18;6.20;;;;;;;20.05;53.32;100835.63;6224725;23;20322;-81
2022/06/21 05:42:02;;;;;;;13.13;6.50;;;;;;;19.55;53.43;100822.19;6223861;23;20028;-83
2022/06/21 05:44:34;;;;;;;15.23;6.57;;;;;;;20.39;51.27;100821.13;6223140;23;20020;-84
2022/06/21 05:47:06;;;;;;;12.30;6.43;;;;;;;21.56;48.37;100837.22;6236041;23;20024;-84
2022/06/21 05:49:36;;;;;;;16.17;6.35;;;;;;;21.24;49.10;100834.72;6239027;23;20025;-81
2022/06/21 05:52:08;;;;;;;11.80;5.80;;;;;;;21.68;46.47;100854.09;6230834;23;20024;-80
2022/06/21 05:54:39;;;;;;;6.97;5.65;;;;;;;21.20;47.46;100844.16;6228332;23;20291;-82
2022/06/21 05:57:14;;;;;;;9.70;5.53;;;;;;;21.29;48.27;100834.03;6230049;23;20028;-81
2022/06/21 05:59:41;;;;;;;9.75;5.93;;;;;;;22.41;46.28;100852.06;6222830;23;20097;-83
2022/06/21 06:02:15;;;;;;;10.48;5.75;;;;;;;21.18;47.67;100846.22;6221807;23;20052;-81
2022/06/21 06:04:47;;;;;;;10.55;6.28;;;;;;;22.08;46.48;100857.06;6223905;23;20025;-82
2022/06/21 06:07:31;;;;;;;8.80;5.43;;;;;;;22.27;45.75;100828.50;6223420;23;20047;-83
2022/06/21 06:10:04;;;;;;;8.65;5.32;;;;;;;21.63;45.97;100853.94;6223608;23;20024;-83
2022/06/21 06:12:34;;;;;;;11.35;5.95;;;;;;;21.38;46.90;100870.78;6223770;23;20027;-82
2022/06/21 06:15:06;;;;;;;11.45;5.90;;;;;;;21.14;46.87;100859.16;6223662;23;20024;-82
2022/06/21 06:17:42;;;;;;;14.85;5.72;;;;;;;21.15;47.58;100849.31;6223470;23;20025;-82
2022/06/21 06:20:18;;;;;;;14.85;5.72;;;;;;;21.69;46.25;100856.53;6223065;23;20052;-84
2022/06/21 06:22:52;;;;;;;10.10;6.10;;;;;;;21.38;46.57;100846.84;6222519;23;20032;-83
2022/06/21 06:25:23;;;;;;;6.70;5.25;;;;;;;21.47;46.18;100842.84;6222105;23;20032;-82
2022/06/21 06:27:58;;;;;;;11.10;5.65;;;;;;;21.21;46.75;100853.78;6224091;23;20032;-81
2022/06/21 06:30:32;;;;;;;7.90;5.05;;;;;;;22.55;43.72;100851.88;6224339;23;20020;-84
2022/06/21 06:33:10;;;;;;;10.75;5.43;;;;;;;22.14;44.46;100856.16;6225111;23;20345;-84
2022/06/21 06:35:37;;;;;;;13.85;5.50;;;;;;;22.76;44.39;100861.97;6224295;23;20469;-83
2022/06/21 06:38:07;;;;;;;14.80;5.78;;;;;;;23.62;42.29;100857.81;6223092;23;20361;-83
2022/06/21 06:40:38;;;;;;;7.95;5.15;;;;;;;23.04;42.31;100864.00;6222664;23;20025;-83
2022/06/21 06:43:10;;;;;;;8.57;5.22;;;;;;;22.35;43.37;100857.50;6221533;23;20025;-82
2022/06/21 06:45:38;;;;;;;10.75;5.00;;;;;;;23.39;41.65;100851.44;6220476;23;20056;-82
2022/06/21 06:48:15;;;;;;;9.98;5.07;;;;;;;22.00;44.44;100849.34;6220758;23;20027;-82
2022/06/21 06:50:47;;;;;;;8.43;5.30;;;;;;;22.82;42.76;100843.22;6220451;23;20024;-83
2022/06/21 06:53:20;;;;;;;17.00;6.60;;;;;;;24.31;40.06;100845.22;6221287;23;20047;-82
2022/06/21 06:55:48;;;;;;;11.88;5.25;;;;;;;25.03;39.45;100840.78;6221466;23;20035;-83
2022/06/21 06:58:28;;;;;;;9.88;5.28;;;;;;;26.18;36.92;100841.59;6221100;23;20027;-85
2022/06/21 07:01:02;;;;;;;10.73;5.70;;;;;;;24.82;38.89;100838.81;6220515;23;20430;-84
2022/06/21 07:03:32;;;;;;;8.85;5.00;;;;;;;26.22;36.56;100848.06;6220960;23;20025;-84
2022/06/21 07:06:03;;;;;;;8.90;4.95;;;;;;;26.50;35.73;100841.63;6220885;23;20025;-84
2022/06/21 07:08:36;;;;;;;9.10;4.83;;;;;;;26.88;36.71;100859.38;6221465;23;20024;-85
2022/06/21 07:11:16;;;;;;;9.30;5.13;;;;;;;25.45;36.47;100862.50;6222328;23;20032;-87
2022/06/21 07:13:43;;;;;;;6.80;4.63;;;;;;;26.36;35.86;100862.72;6220509;23;20511;-85
2022/06/21 07:16:15;;;;;;;11.23;4.93;;;;;;;26.81;34.60;100871.38;6220979;23;20024;-84
2022/06/21 07:18:46;;;;;;;7.57;4.75;;;;;;;26.51;35.39;100866.56;6221010;23;20025;-83
2022/06/21 07:21:14;;;;;;;10.45;4.32;;;;;;;27.16;35.42;100868.94;6221154;23;20360;-85
2022/06/21 07:23:44;;;;;;;9.73;4.60;;;;;;;26.34;35.59;100864.03;6220331;23;20119;-83
2022/06/21 07:26:18;;;;;;;7.55;4.97;;;;;;;25.62;36.29;100858.91;6220962;23;20021;-83
2022/06/21 07:28:49;;;;;;;6.35;4.55;;;;;;;25.57;36.61;100850.81;6221635;23;20360;-83
2022/06/21 07:31:23;;;;;;;9.65;5.00;;;;;;;24.66;37.50;100844.97;6220737;23;20031;-83
2022/06/21 07:33:54;;;;;;;10.15;5.10;;;;;;;24.65;39.28;100854.06;6220674;23;20103;-83
2022/06/21 07:36:25;;;;;;;6.53;4.70;;;;;;;24.35;39.71;100844.50;6221967;23;20024;-83
2022/06/21 07:38:56;;;;;;;6.85;4.70;;;;;;;24.92;38.56;100848.88;6221059;23;20017;-83
2022/06/21 07:41:29;;;;;;;7.13;5.07;;;;;;;25.05;36.71;100848.53;6219795;23;20031;-81
2022/06/21 07:43:58;;;;;;;;;;;;;;;24.95;36.71;100851.88;6222407;23;20025;-81
2022/06/21 07:46:30;;;;;;;8.32;5.28;;;;;;;25.06;36.00;100844.78;6218448;23;19916;-80
2022/06/21 07:49:03;;;;;;;7.35;4.70;;;;;;;26.28;35.53;100846.25;6220880;23;20054;-84
2022/06/21 07:51:36;;;;;;;7.55;4.45;;;;;;;25.89;36.44;100833.00;6220163;23;20078;-83
2022/06/21 07:54:10;;;;;;;10.70;4.93;;;;;;;25.73;36.01;100828.53;6218972;23;20035;-86
2022/06/21 07:56:41;;;;;;;8.73;4.60;;;;;;;25.49;36.88;100827.16;6219660;23;20028;-84
2022/06/21 07:59:19;;;;;;;8.23;4.63;;;;;;;25.84;35.12;100824.91;6218427;23;20016;-85
2022/06/21 08:07:29;;;;;;;9.27;4.47;;;;;;;25.22;37.14;100822.53;6219300;23;20091;-83
2022/06/21 08:10:08;;;;;;;5.97;4.40;;;;;;;25.43;34.11;100812.91;6219284;23;20025;-84
2022/06/21 08:16:10;;;;;;;6.57;4.38;;;;;;;24.03;36.49;100790.72;6203382;23;20073;-82
2022/06/21 08:18:55;;;;;;;9.55;4.45;;;;;;;24.67;35.48;100815.28;6218838;23;20074;-83
2022/06/21 08:21:51;;;;;;;8.52;4.60;;;;;;;24.94;35.64;100793.22;6220779;23;20474;-85
2022/06/21 08:25:15;;;;;;;9.07;5.13;;;;;;;22.48;38.93;100782.63;6218811;23;20052;-83
2022/06/21 08:28:00;;;;;;;9.10;5.10;;;;;;;22.37;39.97;100788.75;6219502;23;20084;-83
2022/06/21 08:30:33;;;;;;;8.93;4.80;;;;;;;23.12;39.65;100775.56;6221867;23;20074;-85
2022/06/21 08:33:06;;;;;;;12.27;5.50;;;;;;;23.37;38.92;100773.41;6226079;23;20016;-84
2022/06/21 08:35:39;;;;;;;8.45;5.03;;;;;;;24.03;38.58;100780.03;6225139;23;20025;-84
2022/06/21 08:38:09;;;;;;;8.07;4.55;;;;;;;24.68;37.44;100766.09;6223376;23;20024;-86
2022/06/21 08:41:09;;;;;;;12.30;4.70;;;;;;;24.88;36.77;100768.25;6223041;23;20024;-85
2022/06/21 08:44:09;;;;;;;7.70;4.55;;;;;;;22.78;39.06;100775.38;6223385;23;20039;-85
2022/06/21 08:47:10;;;;;;;9.88;5.05;;;;;;;23.58;38.03;100758.63;6221607;23;20059;-86
2022/06/21 08:50:21;;;;;;;8.15;5.10;;;;;;;22.36;39.26;100757.81;6222947;23;20028;-83
2022/06/21 08:53:23;;;;;;;6.82;4.90;;;;;;;21.87;40.89;100749.13;6223766;23;20427;-83
2022/06/21 08:55:56;;;;;;;10.00;5.20;;;;;;;22.45;38.70;100740.44;6209354;23;20025;-85
2022/06/21 08:58:42;;;;;;;7.88;5.18;;;;;;;23.07;37.30;100735.44;6228143;23;20031;-85
2022/06/21 09:01:21;;;;;;;7.93;4.60;;;;;;;23.39;36.40;100707.22;6231696;23;20035;-83
2022/06/21 09:04:09;;;;;;;8.65;4.75;;;;;;;23.77;36.22;100716.47;6226512;23;20071;-81
2022/06/21 09:06:52;;;;;;;8.93;4.32;;;;;;;24.27;36.64;100707.69;6228549;23;20062;-84
2022/06/21 09:09:43;;;;;;;8.77;4.50;;;;;;;23.65;35.54;100697.03;6229854;23;20075;-84
2022/06/21 09:12:22;;;;;;;10.02;4.40;;;;;;;24.30;34.44;100710.69;6227592;23;20024;-85
2022/06/21 09:15:15;;;;;;;6.13;4.50;;;;;;;23.30;37.38;100697.97;6226410;23;20409;-83
2022/06/21 09:17:53;;;;;;;9.18;4.50;;;;;;;24.04;35.70;100708.66;6226235;23;20024;-82
2022/06/21 09:20:33;;;;;;;8.70;4.57;;;;;;;22.99;37.96;100706.44;6224184;23;20024;-85
2022/06/21 09:23:06;;;;;;;7.72;4.20;;;;;;;23.09;37.93;100710.13;6217493;23;20092;-82
2022/06/21 09:25:44;;;;;;;8.20;4.22;;;;;;;23.49;36.50;100703.94;6220543;23;20060;-82
2022/06/21 09:28:23;;;;;;;9.10;4.53;;;;;;;23.36;35.75;100685.53;6221935;23;20021;-82
2022/06/21 09:30:57;;;;;;;9.55;4.40;;;;;;;23.88;35.48;100688.88;6220895;23;20093;-83
2022/06/21 09:33:36;;;;;;;8.82;4.13;;;;;;;24.06;35.19;100696.69;6221372;23;20025;-83
2022/06/21 09:36:11;;;;;;;7.13;4.05;;;;;;;23.53;36.99;100696.25;6222278;23;20025;-84
2022/06/21 09:38:47;;;;;;;6.50;3.88;;;;;;;23.13;35.68;100691.78;6222137;23;20024;-83
2022/06/21 09:41:22;;;;;;;7.88;4.13;;;;;;;22.59;37.82;100685.03;6222826;23;20059;-81
2022/06/21 09:44:04;;;;;;;5.60;3.80;;;;;;;22.89;37.08;100695.53;6224406;23;20493;-82
2022/06/21 09:46:40;;;;;;;6.00;4.70;;;;;;;22.38;38.44;100710.41;6225846;23;20405;-82
2022/06/21 09:49:19;;;;;;;9.73;4.65;;;;;;;21.78;40.80;100707.84;6221960;23;20634;-82
2022/06/21 09:51:59;;;;;;;5.82;4.25;;;;;;;22.61;38.84;100701.59;6220925;23;20029;-82
2022/06/21 09:54:33;;;;;;;7.75;4.22;;;;;;;23.62;37.37;100706.34;6220700;23;20031;-82
2022/06/21 09:57:12;;;;;;;7.72;4.30;;;;;;;23.42;37.68;100712.09;6221188;23;20063;-82
2022/06/21 09:59:46;;;;;;;7.47;4.45;;;;;;;23.28;38.12;100716.09;6221095;23;20028;-83
2022/06/21 10:02:20;;;;;;;8.75;5.00;;;;;;;22.50;38.47;100714.69;6223204;23;20020;-84
2022/06/21 10:04:55;;;;;;;5.85;4.22;;;;;;;22.87;38.12;100701.13;6225053;23;20021;-83
2022/06/21 10:07:34;;;;;;;7.22;4.60;;;;;;;22.61;37.88;100705.06;6222531;23;20025;-85
2022/06/21 10:10:16;;;;;;;7.88;4.50;;;;;;;22.60;38.55;100698.13;6222898;23;20067;-86
2022/06/21 10:12:55;;;;;;;7.75;4.68;;;;;;;23.43;37.54;100707.56;6222991;23;20024;-85
2022/06/21 10:15:39;;;;;;;7.85;4.50;;;;;;;23.89;36.17;100701.19;6222881;23;20024;-84
2022/06/21 10:18:43;;;;;;;8.70;4.10;;;;;;;24.49;37.10;100700.53;6220938;23;20024;-83
2022/06/21 10:21:31;;;;;;;6.78;5.07;;;;;;;23.91;36.72;100701.75;6168632;23;20056;-82
2022/06/21 10:24:17;;;;;;;9.95;4.90;;;;;;;24.22;36.53;100699.56;6226786;23;20028;-84
2022/06/21 10:27:06;;;;;;;7.57;4.50;;;;;;;23.77;38.84;100695.91;6224432;23;20519;-83
2022/06/21 10:30:17;;;;;;;7.93;4.93;;;;;;;23.62;39.09;100689.50;6223702;23;20166;-82
2022/06/21 10:32:57;;;;;;;7.45;5.40;;;;;;;23.01;38.44;100688.34;6128766;23;20025;-82
2022/06/21 10:35:52;;;;;;;9.43;4.78;;;;;;;23.08;39.07;100687.16;6207372;23;20032;-83
2022/06/21 10:38:34;;;;;;;7.97;5.05;;;;;;;23.19;38.32;100685.47;6218417;23;20060;-82
2022/06/21 10:41:19;;;;;;;7.53;4.93;;;;;;;23.43;37.20;100681.66;6218371;23;20098;-82
2022/06/21 10:44:17;;;;;;;9.57;4.93;;;;;;;23.40;37.42;100652.78;6230804;23;20056;-86
2022/06/21 10:46:49;;;;;;;9.52;4.35;;;;;;;22.67;38.86;100669.47;6225658;23;20021;-85
2022/06/21 10:49:44;;;;;;;8.70;4.43;;;;;;;23.14;39.50;100662.19;6227491;23;20045;-86
2022/06/21 10:52:45;;;;;;;6.35;4.45;;;;;;;23.49;37.13;100679.91;6226203;23;20072;-83
2022/06/21 10:55:35;;;;;;;9.00;4.78;;;;;;;23.34;39.31;100656.41;6231547;23;20024;-85
2022/06/21 11:07:54;;;;;;;8.60;4.90;;;;;;;22.73;38.40;100646.34;6213929;23;20131;-82
2022/06/21 11:14:23;;;;;;;7.72;4.60;;;;;;;23.09;37.43;100648.75;6198436;23;20087;-83
2022/06/21 11:17:03;;;;;;;5.72;4.25;;;;;;;23.88;38.04;100645.31;6218053;23;20103;-85
2022/06/21 11:20:12;;;;;;;8.30;4.43;;;;;;;24.07;36.98;100638.69;6218391;23;20120;-83
2022/06/21 11:22:49;;;;;;;8.85;4.35;;;;;;;24.20;36.89;100659.69;6216912;23;20123;-81
2022/06/21 11:25:55;;;;;;;9.70;4.47;;;;;;;24.35;36.93;100653.81;6220055;23;20021;-84
2022/06/21 11:29:02;;;;;;;8.07;4.50;;;;;;;24.99;35.80;100657.59;6217618;23;20020;-82
2022/06/21 11:35:23;;;;;;;5.85;4.10;;;;;;;23.86;36.08;100645.56;6214683;23;20023;-83
2022/06/21 11:38:41;;;;;;;7.72;4.22;;;;;;;23.69;36.97;100658.09;6120672;23;20170;-84
2022/06/21 11:44:12;;;;;;;9.15;4.43;;;;;;;24.19;36.17;100644.72;6219537;23;20025;-83
2022/06/21 11:46:55;;;;;;;7.93;4.28;;;;;;;24.82;36.03;100656.81;6224517;23;20445;-83
2022/06/21 11:49:52;;;;;;;9.10;4.43;;;;;;;24.31;37.03;100645.47;6222264;23;20035;-82
2022/06/21 11:53:07;;;;;;;8.05;4.50;;;;;;;24.14;37.55;100656.13;6196135;23;20079;-82
2022/06/21 11:55:42;;;;;;;8.75;4.00;;;;;;;24.41;36.41;100658.16;6213200;23;20025;-80
2022/06/21 11:58:27;;;;;;;7.28;4.40;;;;;;;24.16;36.73;100654.03;6226361;23;20029;-82
2022/06/21 12:01:00;;;;;;;6.95;4.53;;;;;;;24.41;36.94;100650.16;6228970;23;20111;-82
2022/06/21 12:03:38;;;;;;;8.13;4.45;;;;;;;24.97;35.37;100654.38;6227601;23;20028;-83
2022/06/21 12:06:12;;;;;;;9.55;4.50;;;;;;;24.41;36.27;100640.25;6223686;23;20465;-82
2022/06/21 12:08:49;;;;;;;7.93;4.50;;;;;;;24.63;36.26;100626.06;6227474;23;20088;-82
2022/06/21 12:11:35;;;;;;;7.03;4.30;;;;;;;24.89;36.01;100624.53;6221697;23;20076;-84
2022/06/21 12:14:14;;;;;;;7.20;4.18;;;;;;;24.49;35.09;100620.31;6224929;23;20029;-85
2022/06/21 12:16:48;;;;;;;6.20;3.97;;;;;;;24.74;36.20;100617.91;6226480;23;20036;-84
2022/06/21 12:19:27;;;;;;;6.55;4.10;;;;;;;24.29;34.76;100604.78;6227555;23;20021;-86
2022/06/21 12:22:01;;;;;;;6.60;4.03;;;;;;;23.93;35.50;100599.97;6223153;23;20028;-85
2022/06/21 12:24:30;;;;;;;9.05;4.30;;;;;;;23.65;35.66;100600.84;6223855;23;20017;-84
2022/06/21 12:26:57;;;;;;;6.50;4.20;;;;;;;23.72;36.85;100582.81;6223588;23;20478;-84
2022/06/21 12:29:28;;;;;;;7.95;4.10;;;;;;;23.94;36.17;100596.25;6224521;23;20356;-83
2022/06/21 12:32:01;;;;;;;10.68;4.38;;;;;;;23.91;35.80;100581.50;6224099;23;20472;-84
2022/06/21 12:34:39;;;;;;;8.90;4.30;;;;;;;24.31;35.68;100585.81;6223057;23;20021;-85
2022/06/21 12:37:13;;;;;;;4.97;3.92;;;;;;;25.40;33.66;100594.53;6226372;23;20284;-85
2022/06/21 12:39:50;;;;;;;4.68;3.70;;;;;;;25.52;33.15;100572.13;6227685;23;20055;-85
2022/06/21 12:42:33;;;;;;;7.22;3.97;;;;;;;25.89;32.56;100590.91;6227368;23;20130;-85
2022/06/21 12:45:22;;;;;;;5.53;3.88;;;;;;;25.43;32.59;100610.09;6226431;23;20235;-82
2022/06/21 12:48:05;;;;;;;7.57;3.90;;;;;;;24.91;33.60;100603.66;6226835;23;20044;-85
2022/06/21 12:50:48;;;;;;;5.65;3.85;;;;;;;24.53;34.05;100593.88;6230065;23;20357;-85
2022/06/21 12:53:47;;;;;;;6.63;4.13;;;;;;;24.71;36.03;100597.00;6232830;23;20043;-82
2022/06/21 12:56:30;;;;;;;8.52;4.20;;;;;;;25.12;33.63;100589.44;6229896;23;20024;-84
2022/06/21 12:59:09;;;;;;;;;;;;;;;24.97;33.66;100587.44;6235850;23;20029;-85
2022/06/21 13:02:01;;;;;;;7.03;3.65;;;;;;;25.60;33.67;100568.97;6228992;23;19962;-83
2022/06/21 13:04:51;;;;;;;6.80;3.90;;;;;;;25.58;31.22;100579.13;6227557;23;20031;-84
2022/06/21 13:07:39;;;;;;;6.68;3.78;;;;;;;25.78;32.28;100576.63;6232087;23;20052;-83
2022/06/21 13:10:31;;;;;;;8.50;3.75;;;;;;;25.48;30.89;100584.44;6234829;23;20031;-84
2022/06/21 13:13:41;;;;;;;6.32;3.80;;;;;;;25.57;32.59;100577.50;6235576;23;20048;-83